Time;durP1;ratioP1;P1;durP2;ratioP2;P2;SDS_P1;SDS_P2;PMS_P1;PMS_P2;Temp;Humidity;BMP_temperature;BMP_pressure;BME280_temperature;BME280_humidity;BME280_pressure;Samples;Min_cycle;Max_cycle;Signal;HPM_P1;HPM_P2
2022/01/24 00:00:52;;;;;;;20.25;10.65;;;2.20;99.90;;;;;;5110183;28;20239;-81
2022/01/24 00:03:17;;;;;;;19.00;9.63;;;2.20;99.90;;;;;;5110479;28;20187;-81
2022/01/24 00:05:44;;;;;;;18.08;10.38;;;2.20;99.90;;;;;;5092230;28;20548;-81
2022/01/24 00:08:10;;;;;;;18.15;10.80;;;2.20;99.90;;;;;;5110496;28;20170;-81
2022/01/24 00:10:38;;;;;;;17.45;9.63;;;2.20;99.90;;;;;;5092250;28;20167;-81
2022/01/24 00:15:59;;;;;;;18.50;11.20;;;2.20;99.90;;;;;;5110275;28;20155;-81
2022/01/24 00:26:41;;;;;;;13.32;9.43;;;2.20;99.90;;;;;;5110314;28;20196;-81
2022/01/24 00:29:11;;;;;;;17.13;10.15;;;2.20;99.90;;;;;;5110224;28;20564;-82
2022/01/24 00:31:37;;;;;;;21.33;9.98;;;2.20;99.90;;;;;;5091708;28;20176;-81
2022/01/24 00:34:03;;;;;;;15.75;10.13;;;2.20;99.90;;;;;;5110029;28;20178;-81
2022/01/24 00:36:29;;;;;;;18.67;10.52;;;2.10;99.90;;;;;;5109927;28;20187;-81
2022/01/24 00:38:55;;;;;;;15.80;10.38;;;2.10;99.90;;;;;;5109981;28;20163;-81
2022/01/24 00:41:22;;;;;;;18.65;11.23;;;2.00;99.90;;;;;;5109881;28;20605;-81
2022/01/24 00:44:27;;;;;;;15.65;9.82;;;2.10;99.90;;;;;;5109767;28;20190;-81
2022/01/24 00:46:53;;;;;;;17.48;10.07;;;2.00;99.90;;;;;;5109159;28;20178;-82
2022/01/24 00:54:44;;;;;;;13.45;9.93;;;2.00;99.90;;;;;;5109686;28;20292;-82
2022/01/24 00:57:11;;;;;;;17.00;9.00;;;1.90;99.90;;;;;;5109588;28;20183;-82
2022/01/24 00:59:38;;;;;;;17.63;10.02;;;1.90;99.90;;;;;;5109581;28;20183;-81
2022/01/24 01:02:06;;;;;;;17.02;9.73;;;1.90;99.90;;;;;;5091334;28;20202;-81
2022/01/24 01:07:08;;;;;;;17.05;9.90;;;1.90;99.90;;;;;;5109669;28;20303;-81
2022/01/24 01:18:15;;;;;;;22.15;8.65;;;1.80;99.90;;;;;;5109513;28;20236;-81
2022/01/24 01:23:32;;;;;;;11.52;7.97;;;1.80;99.90;;;;;;5109411;28;20194;-81
2022/01/24 01:26:02;;;;;;;13.52;9.60;;;1.80;99.90;;;;;;5091207;28;20167;-81
2022/01/24 01:28:29;;;;;;;13.48;8.65;;;1.80;99.90;;;;;;5109382;28;20163;-81
2022/01/24 01:31:00;;;;;;;16.70;9.70;;;1.80;99.90;;;;;;5109266;28;20154;-81
2022/01/24 01:57:15;;;;;;;17.33;9.27;;;1.90;99.90;;;;;;5109136;28;20549;-81
2022/01/24 01:59:41;;;;;;;19.02;9.13;;;1.80;99.90;;;;;;5090719;28;20163;-81
2022/01/24 02:02:07;;;;;;;17.95;9.18;;;1.80;99.90;;;;;;5090433;28;20302;-81
2022/01/24 02:04:33;;;;;;;15.63;8.45;;;1.80;99.90;;;;;;5108941;28;20156;-81
2022/01/24 02:07:00;;;;;;;17.08;8.45;;;1.80;99.90;;;;;;5108944;28;20159;-81
2022/01/24 02:09:32;;;;;;;13.63;9.40;;;1.80;99.90;;;;;;5108840;28;20193;-80
2022/01/24 02:11:58;;;;;;;11.73;8.90;;;1.70;99.90;;;;;;5090765;28;20171;-81
2022/01/24 02:14:31;;;;;;;15.77;9.23;;;1.70;99.90;;;;;;5108978;28;20190;-81
2022/01/24 02:17:04;;;;;;;13.68;8.77;;;1.80;99.90;;;;;;5108737;28;20194;-81
2022/01/24 02:24:32;;;;;;;14.73;8.50;;;1.80;99.90;;;;;;5109273;28;20159;-82
2022/01/24 02:26:59;;;;;;;13.40;7.93;;;1.80;99.90;;;;;;5094217;28;20171;-81
2022/01/24 02:29:46;;;;;;;13.32;8.05;;;1.80;99.90;;;;;;5112466;28;20159;-81
2022/01/24 02:32:13;;;;;;;11.85;7.32;;;1.70;99.90;;;;;;5094027;28;20199;-81
2022/01/24 02:34:42;;;;;;;13.77;8.80;;;1.70;99.90;;;;;;5112272;28;20162;-81
2022/01/24 02:37:13;;;;;;;11.15;8.27;;;1.70;99.90;;;;;;5112104;28;20201;-81
2022/01/24 02:53:17;;;;;;;9.55;6.82;;;1.90;99.90;;;;;;5112076;28;20197;-81
2022/01/24 02:55:43;;;;;;;11.23;7.32;;;1.90;99.90;;;;;;5111862;28;20588;-80
2022/01/24 02:58:09;;;;;;;14.23;8.23;;;2.00;99.90;;;;;;5093825;28;20191;-80
2022/01/24 03:00:37;;;;;;;13.70;7.55;;;1.90;99.90;;;;;;5093318;28;20215;-80
2022/01/24 03:03:03;;;;;;;15.45;7.47;;;2.00;99.90;;;;;;5111620;28;20191;-81
2022/01/24 03:05:31;;;;;;;10.30;7.88;;;2.00;99.90;;;;;;5111793;28;20235;-80
2022/01/24 03:07:57;;;;;;;13.40;7.85;;;2.00;99.90;;;;;;5093523;28;20206;-80
2022/01/24 03:10:29;;;;;;;11.68;7.72;;;2.00;99.90;;;;;;5093516;28;20171;-80
2022/01/24 03:13:10;;;;;;;14.65;8.30;;;2.00;99.90;;;;;;5093361;28;20643;-80
2022/01/24 03:15:38;;;;;;;12.70;8.80;;;2.00;99.90;;;;;;5111530;28;20636;-80
2022/01/24 03:18:05;;;;;;;13.38;8.07;;;2.00;99.90;;;;;;5111505;28;20187;-80
2022/01/24 03:20:31;;;;;;;16.30;7.80;;;2.10;99.90;;;;;;5093096;28;20178;-80
2022/01/24 03:22:57;;;;;;;12.13;7.72;;;2.10;99.90;;;;;;5111378;28;20717;-80
2022/01/24 03:25:23;;;;;;;16.98;9.05;;;2.00;99.90;;;;;;5093060;28;20171;-80
2022/01/24 03:27:49;;;;;;;12.48;9.15;;;2.00;99.90;;;;;;5093101;28;20660;-81
2022/01/24 03:30:15;;;;;;;11.18;8.40;;;2.00;99.90;;;;;;5093054;28;20171;-80
2022/01/24 03:32:41;;;;;;;18.88;8.65;;;2.00;99.90;;;;;;5092973;28;20231;-79
2022/01/24 03:35:07;;;;;;;13.10;7.88;;;2.00;99.90;;;;;;5110932;28;20152;-80
2022/01/24 03:37:35;;;;;;;12.40;8.52;;;2.00;99.90;;;;;;5110920;28;20190;-80
2022/01/24 03:40:06;;;;;;;16.15;8.82;;;1.90;99.90;;;;;;5110980;28;20152;-80
2022/01/24 03:42:32;;;;;;;13.93;8.65;;;1.90;99.90;;;;;;5092761;28;20198;-80
2022/01/24 03:45:03;;;;;;;13.55;8.75;;;1.90;99.90;;;;;;5092753;28;20333;-81
2022/01/24 03:49:56;;;;;;;13.77;8.93;;;1.90;99.90;;;;;;5110843;28;20155;-80
2022/01/24 03:52:24;;;;;;;18.08;9.35;;;1.80;99.90;;;;;;5110593;28;20218;-80
2022/01/24 03:54:50;;;;;;;15.38;8.88;;;1.80;99.90;;;;;;5110472;28;20636;-80
2022/01/24 03:57:19;;;;;;;20.30;10.52;;;1.80;99.90;;;;;;5110513;28;20229;-80
2022/01/24 03:59:44;;;;;;;19.98;10.52;;;1.80;99.90;;;;;;5110480;28;20159;-80
2022/01/24 04:02:12;;;;;;;20.65;10.40;;;1.70;99.90;;;;;;5110544;28;20182;-80
2022/01/24 04:04:38;;;;;;;15.43;9.25;;;1.70;99.90;;;;;;5092150;28;20168;-80
2022/01/24 04:07:05;;;;;;;11.80;8.63;;;1.70;99.90;;;;;;5092208;28;20193;-80
2022/01/24 04:09:31;;;;;;;16.27;10.52;;;1.70;99.90;;;;;;5092193;28;20178;-80
2022/01/24 04:11:59;;;;;;;15.63;9.35;;;1.70;99.90;;;;;;5110302;28;20160;-81
2022/01/24 04:14:39;;;;;;;14.90;9.15;;;1.70;99.90;;;;;;5110206;28;20172;-80
2022/01/24 04:17:22;;;;;;;13.05;8.63;;;1.60;99.90;;;;;;5091032;28;20199;-81
2022/01/24 04:22:29;;;;;;;14.80;9.50;;;1.80;99.90;;;;;;5109839;28;20616;-81
2022/01/24 04:25:00;;;;;;;14.77;10.30;;;1.70;99.90;;;;;;5109961;28;20196;-81
2022/01/24 04:27:27;;;;;;;16.05;9.40;;;1.70;99.90;;;;;;5091747;28;20171;-81
2022/01/24 04:29:54;;;;;;;13.82;9.35;;;1.70;99.90;;;;;;5110090;28;20166;-81
2022/01/24 04:32:20;;;;;;;16.30;9.88;;;1.70;99.90;;;;;;5091944;28;20671;-81
2022/01/24 04:34:46;;;;;;;23.27;11.65;;;1.80;99.90;;;;;;5091751;28;20197;-81
2022/01/24 04:37:13;;;;;;;19.45;11.65;;;1.80;99.90;;;;;;5109973;28;20187;-80
2022/01/24 04:39:39;;;;;;;14.95;9.57;;;1.80;99.90;;;;;;5109780;28;20155;-80
2022/01/24 04:42:10;;;;;;;20.35;10.40;;;1.80;99.90;;;;;;5109933;28;20236;-80
2022/01/24 04:54:53;;;;;;;16.38;10.55;;;1.90;99.90;;;;;;5109556;28;20284;-81
2022/01/24 04:57:23;;;;;;;22.58;11.90;;;1.80;99.90;;;;;;5109654;28;20199;-81
2022/01/24 04:59:52;;;;;;;17.33;10.55;;;1.80;99.90;;;;;;5109368;28;20211;-80
2022/01/24 05:02:20;;;;;;;20.20;10.88;;;1.80;99.90;;;;;;5091313;28;20640;-81
2022/01/24 05:04:46;;;;;;;18.85;11.45;;;1.80;99.90;;;;;;5109511;28;20194;-81
2022/01/24 05:07:12;;;;;;;22.55;11.73;;;1.70;99.90;;;;;;5109505;28;20162;-81
2022/01/24 05:09:46;;;;;;;21.00;10.63;;;1.70;99.90;;;;;;5109357;28;20220;-80
2022/01/24 05:12:22;;;;;;;15.52;8.43;;;1.60;99.90;;;;;;5109365;28;20175;-81
2022/01/24 05:21:31;;;;;;;20.17;9.65;;;1.60;99.90;;;;;;5109177;28;20282;-81
2022/01/24 05:25:53;;;;;;;17.20;8.93;;;1.50;99.90;;;;;;5109020;28;20190;-80
2022/01/24 05:28:20;;;;;;;15.02;7.63;;;1.50;99.90;;;;;;5090932;28;20224;-80
2022/01/24 05:30:47;;;;;;;14.95;7.80;;;1.40;99.90;;;;;;5090943;28;20181;-81
2022/01/24 05:33:13;;;;;;;15.68;8.18;;;1.40;99.90;;;;;;5090773;28;20178;-80
2022/01/24 05:35:39;;;;;;;17.08;7.82;;;1.30;99.90;;;;;;5090891;28;20248;-80
2022/01/24 05:38:05;;;;;;;12.13;6.82;;;1.30;99.90;;;;;;5109077;28;20187;-80
2022/01/24 05:40:31;;;;;;;11.98;7.18;;;1.30;99.90;;;;;;5091006;28;20232;-80
2022/01/24 05:42:57;;;;;;;12.32;6.55;;;1.30;99.90;;;;;;5091003;28;20258;-80
2022/01/24 05:45:23;;;;;;;13.70;6.65;;;1.30;99.90;;;;;;5090898;28;20628;-80
2022/01/24 05:47:49;;;;;;;8.93;6.60;;;1.30;99.90;;;;;;5108956;28;20617;-79
2022/01/24 05:50:15;;;;;;;12.85;6.97;;;1.40;99.90;;;;;;5109082;28;20195;-80
2022/01/24 05:52:41;;;;;;;10.52;6.95;;;1.40;99.90;;;;;;5108813;28;20160;-79
2022/01/24 05:55:07;;;;;;;15.77;8.48;;;1.40;99.90;;;;;;5090459;28;20206;-80
2022/01/24 05:57:34;;;;;;;14.10;6.75;;;1.40;99.90;;;;;;5108914;28;20212;-79
2022/01/24 06:00:00;;;;;;;13.82;7.03;;;1.40;99.90;;;;;;5111448;28;20207;-80
2022/01/24 06:02:26;;;;;;;15.15;6.97;;;1.30;99.90;;;;;;5112667;28;20198;-80
2022/01/24 06:04:52;;;;;;;12.80;7.40;;;1.40;99.90;;;;;;5094326;28;20206;-79
2022/01/24 06:07:18;;;;;;;13.38;7.50;;;1.40;99.90;;;;;;5094113;28;20370;-79
2022/01/24 06:09:44;;;;;;;14.40;8.32;;;1.40;99.90;;;;;;5093870;28;20182;-78
2022/01/24 06:12:10;;;;;;;10.40;6.03;;;1.40;99.90;;;;;;5112342;28;20164;-78
2022/01/24 06:14:36;;;;;;;10.85;6.35;;;1.30;99.90;;;;;;5111920;28;20170;-77
2022/01/24 06:17:03;;;;;;;8.90;5.10;;;1.20;99.90;;;;;;5110735;28;20210;-77
2022/01/24 06:19:29;;;;;;;7.18;5.05;;;1.10;99.90;;;;;;5094342;28;20175;-78
2022/01/24 06:21:55;;;;;;;9.35;4.38;;;1.10;99.90;;;;;;5112474;28;20163;-77
2022/01/24 06:24:21;;;;;;;11.82;5.75;;;1.00;99.90;;;;;;5094033;28;20167;-76
2022/01/24 06:26:47;;;;;;;8.60;5.20;;;1.00;99.90;;;;;;5112090;28;20221;-76
2022/01/24 06:29:13;;;;;;;8.60;4.97;;;0.90;99.90;;;;;;5112485;28;20156;-76
2022/01/24 06:31:39;;;;;;;5.22;3.85;;;1.00;99.90;;;;;;5112053;28;20163;-76
2022/01/24 06:34:06;;;;;;;8.38;5.53;;;0.90;99.90;;;;;;5112048;28;20220;-76
2022/01/24 06:36:32;;;;;;;12.27;6.70;;;0.90;99.90;;;;;;5093729;28;20203;-77
2022/01/24 06:39:00;;;;;;;10.23;5.32;;;0.90;99.90;;;;;;5111937;28;20156;-76
2022/01/24 06:41:32;;;;;;;9.27;5.93;;;0.90;99.90;;;;;;5093558;28;20171;-76
2022/01/24 06:43:58;;;;;;;7.95;5.38;;;0.80;99.90;;;;;;5093711;28;20175;-76
2022/01/24 06:46:24;;;;;;;6.05;4.70;;;0.70;99.90;;;;;;5093528;28;20195;-77
2022/01/24 06:48:50;;;;;;;7.63;4.93;;;0.60;99.90;;;;;;5093495;28;20191;-77
2022/01/24 06:51:18;;;;;;;7.82;4.93;;;0.60;99.90;;;;;;5111781;28;20156;-76
2022/01/24 06:53:44;;;;;;;7.15;5.07;;;0.70;99.90;;;;;;5111565;28;20163;-77
2022/01/24 06:56:10;;;;;;;7.53;4.68;;;0.70;99.90;;;;;;5093393;28;20191;-77
2022/01/24 06:58:37;;;;;;;8.68;5.70;;;0.60;99.90;;;;;;5111516;28;20282;-78
2022/01/24 07:01:04;;;;;;;10.35;6.38;;;0.70;99.90;;;;;;5111276;28;20299;-77
2022/01/24 07:03:29;;;;;;;9.98;6.03;;;0.60;99.90;;;;;;5111678;28;20155;-77
2022/01/24 07:05:55;;;;;;;11.68;6.05;;;0.60;99.90;;;;;;5111549;28;20270;-78
2022/01/24 07:08:21;;;;;;;10.05;5.45;;;0.60;99.90;;;;;;5111473;28;20220;-76
2022/01/24 07:10:47;;;;;;;8.25;5.82;;;0.50;99.90;;;;;;5092294;28;20229;-77
2022/01/24 07:13:14;;;;;;;11.18;6.47;;;0.50;99.90;;;;;;5111194;28;20163;-77
2022/01/24 07:15:48;;;;;;;10.45;6.10;;;0.40;99.90;;;;;;5111441;28;20209;-78
2022/01/24 07:18:58;;;;;;;8.77;5.47;;;0.50;99.90;;;;;;5092949;28;20207;-78
2022/01/24 07:21:07;;;;;;;9.13;5.70;;;0.50;99.90;;;;;;5111008;28;20199;-79
2022/01/24 07:23:34;;;;;;;10.88;6.93;;;0.60;99.90;;;;;;5111005;28;20151;-77
2022/01/24 07:26:01;;;;;;;12.20;4.70;;;0.50;99.90;;;;;;5110029;28;20195;-78
2022/01/24 07:28:27;;;;;;;9.77;5.78;;;0.30;99.90;;;;;;5091994;28;20167;-78
2022/01/24 07:30:53;;;;;;;8.77;5.95;;;0.30;99.90;;;;;;5110899;28;20187;-78
2022/01/24 07:33:18;;;;;;;10.82;6.15;;;0.40;99.90;;;;;;5111116;28;20187;-78
2022/01/24 07:35:45;;;;;;;10.82;6.20;;;0.40;99.90;;;;;;5092778;28;20177;-78
2022/01/24 07:38:11;;;;;;;11.88;6.75;;;0.30;99.90;;;;;;5110847;28;20199;-79
2022/01/24 07:40:39;;;;;;;10.38;5.75;;;0.30;99.90;;;;;;5110802;28;20190;-78
2022/01/24 07:45:35;;;;;;;12.85;5.93;;;0.20;99.90;;;;;;5110963;28;20194;-75
2022/01/24 07:48:02;;;;;;;10.98;6.72;;;0.20;99.90;;;;;;5092179;28;20167;-75
2022/01/24 07:50:28;;;;;;;10.85;6.95;;;0.20;99.90;;;;;;5092459;28;20229;-75
2022/01/24 07:52:55;;;;;;;11.25;6.40;;;0.10;99.90;;;;;;5110586;28;20160;-76
2022/01/24 07:55:22;;;;;;;14.18;7.07;;;0.10;99.90;;;;;;5092199;28;20181;-77
2022/01/24 07:57:48;;;;;;;9.82;6.18;;;0.00;99.90;;;;;;5092533;28;20221;-78
2022/01/24 08:00:14;;;;;;;12.02;5.93;;;0.00;99.90;;;;;;5112672;28;20230;-77
2022/01/24 08:02:41;;;;;;;8.70;6.22;;;0.10;99.90;;;;;;5129102;28;20539;-77
2022/01/24 08:05:08;;;;;;;13.13;7.38;;;0.10;99.90;;;;;;5129281;28;20167;-78
2022/01/24 08:07:35;;;;;;;10.82;6.40;;;0.00;99.90;;;;;;5129300;28;20576;-78
2022/01/24 08:10:01;;;;;;;11.52;6.75;;;0.00;99.90;;;;;;5129229;28;20191;-77
2022/01/24 08:12:26;;;;;;;13.25;6.90;;;0.00;99.90;;;;;;5129173;28;20237;-76
2022/01/24 08:14:52;;;;;;;10.00;5.60;;;-0.10;99.90;;;;;;5130174;28;20193;-78
2022/01/24 08:17:19;;;;;;;12.60;6.55;;;0.00;99.90;;;;;;5129036;28;20581;-79
2022/01/24 08:19:45;;;;;;;10.27;5.97;;;0.10;99.90;;;;;;5129080;28;20187;-77
2022/01/24 08:22:13;;;;;;;12.27;6.55;;;0.10;99.90;;;;;;5130129;28;20155;-78
2022/01/24 08:24:39;;;;;;;12.10;6.05;;;0.10;99.90;;;;;;5130354;28;20147;-77
2022/01/24 08:27:05;;;;;;;7.82;4.50;;;0.00;99.90;;;;;;5130290;28;20166;-77
2022/01/24 08:29:31;;;;;;;16.55;6.65;;;0.00;99.90;;;;;;5128887;28;20620;-77
2022/01/24 08:31:57;;;;;;;11.93;7.05;;;0.00;99.90;;;;;;5129919;28;20224;-77
2022/01/24 08:34:23;;;;;;;10.70;6.20;;;0.10;99.90;;;;;;5128711;28;20190;-78
2022/01/24 08:36:49;;;;;;;10.00;6.68;;;0.20;99.90;;;;;;5130162;28;20204;-78
2022/01/24 08:39:14;;;;;;;10.18;6.10;;;0.20;99.90;;;;;;5128801;28;20658;-77
2022/01/24 08:47:17;;;;;;;9.88;5.55;;;0.30;99.90;;;;;;5084050;28;20194;-78
2022/01/24 08:49:43;;;;;;;10.82;5.72;;;0.20;99.90;;;;;;5129859;28;20170;-79
2022/01/24 08:52:09;;;;;;;10.75;6.72;;;0.20;99.90;;;;;;5128342;28;20181;-78
2022/01/24 08:54:35;;;;;;;11.00;7.40;;;0.20;99.90;;;;;;5128405;28;20174;-78
2022/01/24 08:57:02;;;;;;;13.10;7.13;;;0.30;99.90;;;;;;5129682;28;20188;-78
2022/01/24 08:59:38;;;;;;;11.65;8.13;;;0.40;99.90;;;;;;5129703;28;20163;-79
2022/01/24 09:02:05;;;;;;;13.70;7.13;;;0.50;99.90;;;;;;5111036;28;20178;-79
2022/01/24 09:04:33;;;;;;;9.52;5.90;;;0.40;99.90;;;;;;5129562;28;20186;-79
2022/01/24 09:07:04;;;;;;;9.85;6.95;;;0.40;99.90;;;;;;5111517;28;20627;-79
2022/01/24 09:09:34;;;;;;;12.93;6.82;;;0.60;99.90;;;;;;5110783;28;20159;-78
2022/01/24 09:12:06;;;;;;;13.05;6.25;;;0.50;99.90;;;;;;5111227;28;20171;-78
2022/01/24 09:14:32;;;;;;;11.90;6.43;;;0.40;99.90;;;;;;5111176;28;20194;-79
2022/01/24 09:16:58;;;;;;;10.95;6.35;;;0.40;99.90;;;;;;5111147;28;20201;-78
2022/01/24 09:19:24;;;;;;;12.82;7.35;;;0.50;99.90;;;;;;5129487;28;20175;-78
2022/01/24 09:21:50;;;;;;;9.77;6.50;;;0.50;99.90;;;;;;5129290;28;20190;-79
2022/01/24 09:24:16;;;;;;;11.07;6.90;;;0.50;99.90;;;;;;5111085;28;20169;-78
2022/01/24 09:26:42;;;;;;;10.50;6.38;;;0.40;99.90;;;;;;5111226;28;20163;-80
2022/01/24 09:29:08;;;;;;;15.85;6.88;;;0.40;99.90;;;;;;5110779;28;20224;-78
2022/01/24 09:31:34;;;;;;;11.93;7.10;;;0.40;99.90;;;;;;5110908;28;20225;-76
2022/01/24 09:34:00;;;;;;;13.18;6.80;;;0.50;99.90;;;;;;5130760;28;20159;-80
2022/01/24 09:36:26;;;;;;;11.45;6.97;;;0.40;99.90;;;;;;5115248;28;20173;-78
2022/01/24 09:38:52;;;;;;;11.23;7.63;;;0.40;99.90;;;;;;5115054;28;20207;-79
2022/01/24 09:41:18;;;;;;;14.70;6.47;;;0.30;99.90;;;;;;5133461;28;20187;-80
2022/01/24 09:43:44;;;;;;;10.40;6.50;;;0.30;99.90;;;;;;5115091;28;20159;-80
2022/01/24 09:46:10;;;;;;;12.40;7.82;;;0.40;99.90;;;;;;5114824;28;20159;-79
2022/01/24 09:48:40;;;;;;;12.20;6.82;;;0.30;99.90;;;;;;5114900;28;20181;-78
2022/01/24 09:51:07;;;;;;;13.93;7.22;;;0.40;99.90;;;;;;5133314;28;20190;-80
2022/01/24 09:53:34;;;;;;;17.08;7.72;;;0.40;99.90;;;;;;5133209;28;20166;-81
2022/01/24 09:56:03;;;;;;;8.98;6.63;;;0.40;99.90;;;;;;5133210;28;20162;-81
2022/01/24 09:58:32;;;;;;;11.23;6.32;;;0.30;99.90;;;;;;5114673;28;20258;-80
2022/01/24 10:00:59;;;;;;;10.32;6.85;;;0.30;99.90;;;;;;5127114;27;20293;-80
2022/01/24 10:03:25;;;;;;;13.23;7.60;;;0.20;99.90;;;;;;5153396;27;20218;-81
2022/01/24 10:05:54;;;;;;;11.15;6.68;;;0.20;99.90;;;;;;5135136;27;20166;-81
2022/01/24 10:08:22;;;;;;;13.50;7.25;;;0.30;99.90;;;;;;5134750;27;20257;-81
2022/01/24 10:10:51;;;;;;;9.35;6.00;;;0.30;99.90;;;;;;5135034;27;20199;-81
2022/01/24 10:16:45;;;;;;;8.95;5.90;;;0.30;99.90;;;;;;5153589;27;20162;-81
2022/01/24 10:19:14;;;;;;;10.20;7.00;;;0.30;99.90;;;;;;5134873;27;20172;-79
2022/01/24 10:21:47;;;;;;;12.93;6.43;;;0.30;99.90;;;;;;5153086;27;20182;-80
2022/01/24 10:24:43;;;;;;;10.40;6.78;;;0.30;99.90;;;;;;5134871;27;20586;-80
2022/01/24 10:27:11;;;;;;;14.25;7.07;;;0.50;99.90;;;;;;5134557;27;20177;-79
2022/01/24 10:29:46;;;;;;;11.25;7.15;;;0.60;99.90;;;;;;5152986;27;20169;-80
2022/01/24 10:32:35;;;;;;;13.52;6.95;;;0.70;99.90;;;;;;5141226;27;20194;-78
2022/01/24 10:35:32;;;;;;;10.38;6.82;;;0.60;99.90;;;;;;5098629;28;20252;-79
2022/01/24 10:38:54;;;;;;;11.40;5.95;;;0.60;99.90;;;;;;5111609;28;20187;-79
2022/01/24 10:41:23;;;;;;;9.48;5.88;;;0.70;99.90;;;;;;5112839;28;20171;-80
2022/01/24 10:43:55;;;;;;;13.25;7.88;;;0.90;99.90;;;;;;5113646;28;20293;-79
2022/01/24 10:46:28;;;;;;;12.63;7.78;;;0.90;99.90;;;;;;5130904;28;20151;-79
2022/01/24 10:49:07;;;;;;;14.55;7.95;;;0.70;99.90;;;;;;5132120;28;20143;-80
2022/01/24 10:51:44;;;;;;;13.10;7.60;;;0.70;99.90;;;;;;5113993;28;20166;-79
2022/01/24 10:54:14;;;;;;;15.18;8.95;;;0.60;99.90;;;;;;5113671;28;20194;-79
2022/01/24 10:56:45;;;;;;;14.20;7.53;;;0.50;99.90;;;;;;5131820;28;20155;-79
2022/01/24 10:59:18;;;;;;;13.18;8.05;;;0.50;99.90;;;;;;5113629;28;20170;-80
2022/01/24 11:01:49;;;;;;;10.38;6.78;;;0.40;99.90;;;;;;5113322;28;20352;-78
2022/01/24 11:04:16;;;;;;;12.48;7.28;;;0.60;99.90;;;;;;5131727;28;20194;-80
2022/01/24 11:06:45;;;;;;;13.68;7.20;;;0.60;99.90;;;;;;5131900;28;20635;-80
2022/01/24 11:09:22;;;;;;;17.15;7.65;;;0.60;99.90;;;;;;5113528;28;20171;-80
2022/01/24 11:11:57;;;;;;;11.27;7.07;;;0.60;99.90;;;;;;5113126;28;20196;-81
2022/01/24 11:14:25;;;;;;;15.70;8.20;;;0.70;99.90;;;;;;5131478;28;20303;-81
2022/01/24 11:16:53;;;;;;;15.32;8.55;;;0.70;99.90;;;;;;5112748;28;20201;-81
2022/01/24 11:19:28;;;;;;;15.30;7.72;;;0.70;99.90;;;;;;5131631;28;20163;-80
2022/01/24 11:21:57;;;;;;;12.38;7.53;;;0.70;99.90;;;;;;5131554;28;20214;-81
2022/01/24 11:24:35;;;;;;;13.77;7.38;;;0.70;99.90;;;;;;5113078;28;20197;-82
2022/01/24 11:27:01;;;;;;;15.80;8.50;;;0.80;99.90;;;;;;5131484;28;20151;-81
2022/01/24 11:29:27;;;;;;;11.85;6.32;;;0.80;99.90;;;;;;5112826;28;20181;-81
2022/01/24 11:32:04;;;;;;;10.88;5.97;;;0.80;99.90;;;;;;5112978;28;20190;-81
2022/01/24 11:34:38;;;;;;;17.95;8.00;;;0.80;99.90;;;;;;5131096;28;20731;-80
2022/01/24 11:37:06;;;;;;;9.63;6.55;;;0.80;99.90;;;;;;5112820;28;20298;-82
2022/01/24 11:39:32;;;;;;;11.70;6.63;;;0.80;99.90;;;;;;5131019;28;20193;-81
2022/01/24 11:41:59;;;;;;;12.45;7.05;;;0.90;99.90;;;;;;5112661;28;20192;-81
2022/01/24 11:44:27;;;;;;;13.27;7.03;;;1.00;99.90;;;;;;5112493;28;20694;-81
2022/01/24 11:46:58;;;;;;;10.10;5.93;;;1.00;99.90;;;;;;5130990;28;20155;-81
2022/01/24 11:49:25;;;;;;;11.20;6.57;;;1.10;99.90;;;;;;5130768;28;20210;-80
2022/01/24 11:52:03;;;;;;;8.98;5.97;;;1.10;99.90;;;;;;5131001;28;20158;-78
2022/01/24 11:57:24;;;;;;;11.82;6.43;;;0.80;99.90;;;;;;5130984;28;20186;-80
2022/01/24 11:59:53;;;;;;;11.05;5.38;;;0.70;99.90;;;;;;5112351;28;20274;-79
2022/01/24 12:02:23;;;;;;;7.75;4.82;;;0.80;99.90;;;;;;5130637;28;20159;-80
2022/01/24 12:04:56;;;;;;;7.13;4.82;;;0.80;99.90;;;;;;5129819;28;20717;-80
2022/01/24 12:07:39;;;;;;;11.30;6.65;;;0.80;99.90;;;;;;5129313;28;20162;-80
2022/01/24 12:12:51;;;;;;;6.53;4.47;;;0.80;99.90;;;;;;5130645;28;20177;-80
2022/01/24 12:15:39;;;;;;;6.32;3.80;;;1.00;99.90;;;;;;5130379;28;20190;-80
2022/01/24 12:18:04;;;;;;;7.60;4.65;;;1.00;99.90;;;;;;5130261;28;20717;-80
2022/01/24 12:20:30;;;;;;;9.50;5.47;;;1.10;99.90;;;;;;5129103;28;20163;-80
2022/01/24 12:22:57;;;;;;;10.32;6.00;;;1.20;99.90;;;;;;5129179;28;20163;-80
2022/01/24 12:25:58;;;;;;;11.90;6.43;;;1.30;99.90;;;;;;5128844;28;20204;-79
2022/01/24 12:28:44;;;;;;;7.50;5.32;;;1.10;99.90;;;;;;5130121;28;20155;-80
2022/01/24 12:31:21;;;;;;;9.52;5.18;;;0.90;99.90;;;;;;5128597;28;20226;-79
2022/01/24 12:33:53;;;;;;;8.35;5.03;;;0.90;99.90;;;;;;5128690;28;20197;-80
2022/01/24 12:36:39;;;;;;;11.60;4.90;;;0.90;99.90;;;;;;5130219;28;20382;-80
2022/01/24 12:39:13;;;;;;;8.57;4.25;;;1.00;99.90;;;;;;5129916;28;20739;-79
2022/01/24 12:41:46;;;;;;;6.82;4.97;;;0.90;99.90;;;;;;5130137;28;20192;-79
2022/01/24 12:47:10;;;;;;;7.38;4.38;;;1.10;99.90;;;;;;5129764;28;20155;-80
2022/01/24 12:49:36;;;;;;;7.32;4.65;;;1.10;99.90;;;;;;5128490;28;20166;-80
2022/01/24 12:52:07;;;;;;;6.55;4.05;;;0.90;99.90;;;;;;5129775;28;20158;-79
2022/01/24 12:54:35;;;;;;;7.13;5.45;;;0.90;99.90;;;;;;5129527;28;20213;-79
2022/01/24 12:57:05;;;;;;;9.55;5.85;;;1.00;99.90;;;;;;5128375;28;20239;-79
2022/01/24 12:59:32;;;;;;;7.88;5.28;;;0.90;99.90;;;;;;5128714;28;20174;-79
2022/01/24 13:02:02;;;;;;;9.10;6.05;;;1.00;99.90;;;;;;5131607;27;20174;-78
2022/01/24 13:04:32;;;;;;;10.02;4.78;;;1.10;99.90;;;;;;5131786;27;20189;-79
2022/01/24 13:06:57;;;;;;;8.27;5.43;;;1.20;99.90;;;;;;5131824;27;20195;-79
2022/01/24 13:09:26;;;;;;;10.57;5.10;;;1.10;99.90;;;;;;5149468;27;20619;-79
2022/01/24 13:11:59;;;;;;;8.10;5.00;;;1.10;99.90;;;;;;5131706;27;20166;-79
2022/01/24 13:14:40;;;;;;;9.88;5.93;;;1.10;99.90;;;;;;5149871;27;20249;-79
2022/01/24 13:22:56;;;;;;;12.43;6.97;;;1.40;99.90;;;;;;5150113;27;20207;-80
2022/01/24 13:25:25;;;;;;;9.15;5.72;;;1.30;99.90;;;;;;5131394;28;20195;-81
2022/01/24 13:28:03;;;;;;;10.63;6.45;;;1.20;99.90;;;;;;5149706;28;20152;-80
2022/01/24 13:30:36;;;;;;;11.25;6.82;;;1.30;99.90;;;;;;5131143;28;20201;-80
2022/01/24 13:33:15;;;;;;;11.85;5.88;;;1.40;99.90;;;;;;5131200;28;20170;-80
2022/01/24 13:35:50;;;;;;;9.43;6.35;;;1.60;99.90;;;;;;5149763;28;20526;-79
2022/01/24 13:38:26;;;;;;;8.23;5.97;;;1.50;99.90;;;;;;5149519;28;20583;-80
2022/01/24 13:41:08;;;;;;;10.48;5.90;;;1.50;99.90;;;;;;5149761;28;20146;-79
2022/01/24 13:43:45;;;;;;;11.50;6.03;;;1.40;99.90;;;;;;5131085;28;20261;-80
2022/01/24 13:46:16;;;;;;;9.73;6.30;;;1.30;99.90;;;;;;5130971;28;20162;-79
2022/01/24 13:48:44;;;;;;;9.95;6.45;;;1.30;99.90;;;;;;5149538;28;20521;-77
2022/01/24 13:51:13;;;;;;;9.50;5.35;;;1.20;99.90;;;;;;5149682;28;20214;-77
2022/01/24 13:53:42;;;;;;;11.65;5.63;;;1.00;99.90;;;;;;5130338;28;20410;-79
2022/01/24 13:56:24;;;;;;;9.48;5.88;;;0.90;99.90;;;;;;5131009;28;20211;-80
2022/01/24 13:59:42;;;;;;;7.50;5.22;;;0.90;99.90;;;;;;5149432;28;20185;-79
2022/01/24 14:02:19;;;;;;;10.95;6.07;;;0.90;99.90;;;;;;5128480;28;20197;-80
2022/01/24 14:04:48;;;;;;;8.68;4.65;;;0.90;99.90;;;;;;5149430;28;20182;-80
2022/01/24 14:07:28;;;;;;;10.73;6.70;;;0.90;99.90;;;;;;5131117;28;20166;-79
2022/01/24 14:09:57;;;;;;;9.73;5.25;;;0.90;99.90;;;;;;5131011;28;20176;-79
2022/01/24 14:12:39;;;;;;;7.18;4.00;;;1.00;99.90;;;;;;5149442;28;20150;-79
2022/01/24 14:15:41;;;;;;;9.20;4.70;;;1.00;99.90;;;;;;5149119;28;20602;-79
2022/01/24 14:20:31;;;;;;;8.55;4.90;;;1.00;99.90;;;;;;5130637;28;20155;-79
2022/01/24 14:22:57;;;;;;;7.43;5.18;;;1.00;99.90;;;;;;5126041;28;20195;-80
2022/01/24 14:25:26;;;;;;;10.43;5.30;;;0.90;99.90;;;;;;5104027;28;20214;-81
2022/01/24 14:28:02;;;;;;;13.88;5.57;;;0.90;99.90;;;;;;5111678;28;20198;-80
2022/01/24 14:30:40;;;;;;;11.55;5.40;;;0.90;99.90;;;;;;5112255;28;20219;-79
2022/01/24 14:33:21;;;;;;;11.93;5.55;;;0.80;99.90;;;;;;5119808;28;20205;-79
2022/01/24 14:36:01;;;;;;;8.85;5.85;;;0.80;99.90;;;;;;5109294;28;20260;-80
2022/01/24 14:38:53;;;;;;;9.82;5.18;;;0.70;99.90;;;;;;5124236;28;20217;-80
2022/01/24 14:41:46;;;;;;;10.27;5.75;;;0.70;99.90;;;;;;5108018;28;20171;-78
2022/01/24 14:47:00;;;;;;;12.30;6.45;;;0.70;99.90;;;;;;5111404;28;20170;-78
2022/01/24 14:49:29;;;;;;;10.20;6.25;;;0.70;99.90;;;;;;5093281;28;20191;-80
2022/01/24 14:51:59;;;;;;;11.63;5.75;;;0.70;99.90;;;;;;5093321;28;20251;-80
2022/01/24 14:54:28;;;;;;;6.90;4.80;;;0.70;99.90;;;;;;5110756;28;20203;-79
2022/01/24 14:56:58;;;;;;;12.55;6.00;;;0.70;99.90;;;;;;5111361;28;20191;-79
2022/01/24 14:59:25;;;;;;;8.02;6.22;;;0.80;99.90;;;;;;5106923;28;20195;-79
2022/01/24 15:01:52;;;;;;;9.98;5.97;;;0.80;99.90;;;;;;5113212;28;20222;-79
2022/01/24 15:04:18;;;;;;;9.77;6.70;;;0.80;99.90;;;;;;5111548;28;20187;-79
2022/01/24 15:06:45;;;;;;;9.57;6.40;;;0.80;99.90;;;;;;5112525;28;20189;-78
2022/01/24 15:09:17;;;;;;;10.60;5.78;;;0.80;99.90;;;;;;5130241;28;20198;-78